Time;durP1;ratioP1;P1;durP2;ratioP2;P2;SDS_P1;SDS_P2;PMS_P1;PMS_P2;Temp;Humidity;BMP_temperature;BMP_pressure;BME280_temperature;BME280_humidity;BME280_pressure;Samples;Min_cycle;Max_cycle;Signal;HPM_P1;HPM_P2
2021/06/08 00:00:21;;;;;;;2.63;1.27;;;21.00;37.30;;;;;;5082662;28;20067;-76
2021/06/08 00:02:48;;;;;;;10.20;1.20;;;21.20;36.90;;;;;;5079438;28;20115;-77
2021/06/08 00:05:15;;;;;;;7.32;1.95;;;21.10;37.20;;;;;;5065633;28;20360;-77
2021/06/08 00:07:42;;;;;;;3.30;1.02;;;21.00;37.70;;;;;;5083093;28;20028;-76
2021/06/08 00:10:09;;;;;;;5.43;1.27;;;21.00;38.30;;;;;;5082883;28;20020;-77
2021/06/08 00:12:35;;;;;;;7.05;0.80;;;20.70;38.60;;;;;;5079164;28;20110;-77
2021/06/08 00:15:03;;;;;;;2.38;1.20;;;20.50;39.00;;;;;;5078276;28;20024;-76
2021/06/08 00:17:30;;;;;;;6.07;1.70;;;20.50;38.70;;;;;;5079169;28;20016;-76
2021/06/08 00:19:57;;;;;;;4.50;1.23;;;20.60;38.70;;;;;;5080510;28;20028;-79
2021/06/08 00:22:24;;;;;;;3.40;0.95;;;20.60;38.70;;;;;;5090965;28;20106;-77
2021/06/08 00:24:51;;;;;;;7.15;1.25;;;20.60;39.20;;;;;;5067680;28;20031;-77
2021/06/08 00:27:17;;;;;;;6.78;1.85;;;20.90;38.00;;;;;;5069621;28;20047;-76
2021/06/08 00:29:44;;;;;;;2.15;1.42;;;20.70;38.90;;;;;;5074625;28;20032;-78
2021/06/08 00:32:10;;;;;;;3.72;1.73;;;20.70;39.10;;;;;;5088101;28;20107;-77
2021/06/08 00:34:37;;;;;;;3.60;1.23;;;20.40;39.30;;;;;;5067014;28;20055;-78
2021/06/08 00:37:03;;;;;;;4.85;1.15;;;20.40;39.70;;;;;;5074943;28;20030;-75
2021/06/08 00:39:30;;;;;;;7.97;2.00;;;20.50;39.30;;;;;;5070741;28;20025;-76
2021/06/08 00:41:56;;;;;;;6.70;1.70;;;20.30;39.80;;;;;;5085805;28;20089;-77
2021/06/08 00:44:22;;;;;;;14.10;2.50;;;20.50;39.10;;;;;;5089149;28;20044;-78
2021/06/08 00:46:49;;;;;;;2.75;1.60;;;20.40;39.70;;;;;;5086220;28;20060;-77
2021/06/08 00:49:16;;;;;;;6.38;1.23;;;20.30;39.70;;;;;;5081791;28;20052;-78
2021/06/08 00:51:42;;;;;;;5.00;1.38;;;20.30;39.20;;;;;;5069523;28;20032;-77
2021/06/08 00:54:10;;;;;;;2.80;1.30;;;20.20;40.10;;;;;;5076226;28;20065;-77
2021/06/08 00:56:42;;;;;;;10.60;3.25;;;20.40;39.60;;;;;;5077612;28;20033;-78
2021/06/08 00:59:10;;;;;;;6.82;1.80;;;20.30;39.20;;;;;;5084652;28;20104;-81
2021/06/08 01:01:38;;;;;;;8.32;2.78;;;20.10;39.60;;;;;;5076461;28;20481;-78
2021/06/08 01:04:09;;;;;;;3.75;0.95;;;20.20;39.70;;;;;;5071375;28;20027;-78
2021/06/08 01:06:37;;;;;;;4.28;1.88;;;20.30;39.00;;;;;;5049665;28;20024;-78
2021/06/08 01:09:05;;;;;;;4.47;1.00;;;20.20;39.90;;;;;;5052803;28;20361;-77
2021/06/08 01:11:32;;;;;;;6.70;1.17;;;20.30;39.20;;;;;;5058315;28;20028;-75
2021/06/08 01:13:58;;;;;;;3.70;1.25;;;20.20;38.80;;;;;;5077120;28;20024;-78
2021/06/08 01:16:25;;;;;;;4.32;1.65;;;20.30;39.10;;;;;;5077314;28;20017;-77
2021/06/08 01:18:51;;;;;;;12.88;1.55;;;20.20;38.80;;;;;;5074868;28;20035;-78
2021/06/08 01:21:18;;;;;;;8.05;1.38;;;20.00;40.10;;;;;;5078751;28;20103;-78
2021/06/08 01:23:44;;;;;;;2.20;1.13;;;20.10;39.50;;;;;;5076738;28;20329;-79
2021/06/08 01:26:11;;;;;;;2.55;1.30;;;20.00;39.70;;;;;;5076418;28;20357;-78
2021/06/08 01:28:38;;;;;;;4.40;1.35;;;20.00;39.70;;;;;;5058586;28;20071;-77
2021/06/08 01:31:13;;;;;;;5.40;1.67;;;19.90;39.70;;;;;;5076622;28;20458;-79
2021/06/08 01:33:43;;;;;;;6.97;1.67;;;19.70;40.20;;;;;;5076510;28;20017;-78
2021/06/08 01:36:13;;;;;;;5.40;1.38;;;19.80;39.80;;;;;;5069493;28;20020;-77
2021/06/08 01:38:41;;;;;;;3.63;1.50;;;19.50;40.50;;;;;;5071080;28;20025;-78
2021/06/08 01:41:10;;;;;;;1.95;0.93;;;19.40;40.60;;;;;;5060575;28;20028;-77
2021/06/08 01:43:37;;;;;;;7.82;1.63;;;19.30;40.80;;;;;;5075853;28;20086;-77
2021/06/08 01:46:03;;;;;;;4.30;2.13;;;19.20;41.30;;;;;;5073401;28;20028;-77
2021/06/08 01:48:30;;;;;;;4.13;1.77;;;19.20;41.40;;;;;;5075922;28;20108;-78
2021/06/08 01:51:07;;;;;;;8.90;1.27;;;19.30;41.40;;;;;;5076973;28;20086;-77
2021/06/08 01:53:55;;;;;;;10.10;2.10;;;19.00;42.20;;;;;;5057464;28;20104;-78
2021/06/08 01:56:26;;;;;;;3.00;1.77;;;19.10;42.30;;;;;;5067604;28;20013;-78
2021/06/08 01:59:04;;;;;;;9.85;1.52;;;18.90;42.50;;;;;;5062049;28;20012;-77
2021/06/08 02:01:45;;;;;;;4.65;1.00;;;18.80;42.90;;;;;;5058458;28;20033;-77
2021/06/08 02:04:24;;;;;;;3.20;2.23;;;19.00;43.00;;;;;;5076785;28;20020;-78
2021/06/08 02:06:56;;;;;;;8.32;1.58;;;19.00;42.70;;;;;;5076603;28;20020;-79
2021/06/08 02:09:39;;;;;;;8.35;1.63;;;19.00;42.70;;;;;;5053325;28;20024;-78
2021/06/08 02:12:17;;;;;;;8.77;2.80;;;19.20;42.40;;;;;;5054146;28;20117;-77
2021/06/08 02:14:53;;;;;;;3.50;1.20;;;19.10;42.30;;;;;;5076108;28;20037;-76
2021/06/08 02:17:24;;;;;;;1.13;1.00;;;18.90;42.50;;;;;;5069435;28;20035;-78
2021/06/08 02:19:55;;;;;;;7.90;2.42;;;18.90;42.70;;;;;;5065083;28;20115;-77
2021/06/08 02:22:24;;;;;;;3.67;1.10;;;18.70;43.60;;;;;;5049671;28;20028;-76
2021/06/08 02:24:52;;;;;;;4.85;1.63;;;18.70;44.00;;;;;;5063936;28;20029;-76
2021/06/08 02:27:24;;;;;;;8.88;1.88;;;18.50;44.30;;;;;;5067485;28;20105;-77
2021/06/08 02:29:53;;;;;;;4.65;1.35;;;18.40;44.10;;;;;;5049444;28;20121;-77
2021/06/08 02:32:20;;;;;;;9.18;3.65;;;18.40;44.80;;;;;;5043339;28;20409;-76
2021/06/08 02:34:48;;;;;;;10.93;1.35;;;18.30;45.30;;;;;;5064971;28;20311;-76
2021/06/08 02:37:17;;;;;;;5.97;2.60;;;18.20;45.90;;;;;;5066425;28;20510;-75
2021/06/08 02:39:45;;;;;;;1.52;1.10;;;18.00;46.70;;;;;;5061070;28;20139;-76
2021/06/08 02:42:13;;;;;;;4.47;2.22;;;18.00;46.10;;;;;;5065667;28;20032;-77
2021/06/08 02:44:41;;;;;;;8.52;1.70;;;17.90;46.40;;;;;;5068526;28;20367;-76
2021/06/08 02:47:08;;;;;;;7.85;2.15;;;17.80;46.80;;;;;;5062631;28;20025;-76
2021/06/08 02:49:35;;;;;;;9.13;1.33;;;17.80;47.20;;;;;;5043809;28;20121;-76
2021/06/08 02:52:02;;;;;;;6.75;1.95;;;17.70;47.00;;;;;;5070269;28;20039;-76
2021/06/08 02:54:29;;;;;;;6.43;1.70;;;17.80;47.20;;;;;;5062344;28;20444;-77
2021/06/08 02:56:58;;;;;;;6.55;2.38;;;17.60;47.30;;;;;;5063122;28;20411;-78
2021/06/08 02:59:27;;;;;;;6.63;1.52;;;17.50;47.50;;;;;;5069899;28;20043;-77
2021/06/08 03:01:58;;;;;;;1.58;1.40;;;17.50;48.00;;;;;;5056748;28;20334;-78
2021/06/08 03:04:33;;;;;;;7.22;1.40;;;17.50;48.20;;;;;;5061213;28;20035;-76
2021/06/08 03:07:02;;;;;;;9.50;3.42;;;17.40;48.70;;;;;;5054243;28;20035;-75
2021/06/08 03:09:37;;;;;;;7.57;2.50;;;17.30;48.80;;;;;;5061348;28;20029;-76
2021/06/08 03:12:10;;;;;;;4.00;1.70;;;17.30;49.00;;;;;;5074157;28;20016;-76
2021/06/08 03:14:40;;;;;;;7.38;1.50;;;17.20;49.10;;;;;;5068526;28;20028;-75
2021/06/08 03:17:07;;;;;;;5.82;1.70;;;17.10;49.30;;;;;;5057883;28;20032;-75
2021/06/08 03:19:36;;;;;;;7.47;1.20;;;17.00;50.00;;;;;;5065782;28;20455;-76
2021/06/08 03:22:17;;;;;;;9.68;2.47;;;16.90;50.10;;;;;;5070444;28;20043;-77
2021/06/08 03:24:48;;;;;;;10.23;1.70;;;17.00;50.10;;;;;;5057960;28;20021;-75
2021/06/08 03:27:14;;;;;;;10.23;1.85;;;17.00;50.00;;;;;;5037793;28;20051;-77
2021/06/08 03:29:42;;;;;;;4.32;1.23;;;16.90;50.40;;;;;;5052729;28;20109;-77
2021/06/08 03:32:09;;;;;;;6.55;2.08;;;16.80;50.40;;;;;;5071424;28;20510;-76
2021/06/08 03:34:39;;;;;;;7.60;1.30;;;16.80;50.90;;;;;;5072044;28;20098;-76
2021/06/08 03:37:08;;;;;;;11.10;1.58;;;16.80;51.10;;;;;;5063097;28;20029;-76
2021/06/08 03:39:35;;;;;;;2.15;1.00;;;16.80;50.90;;;;;;5072332;28;20056;-75
2021/06/08 03:42:03;;;;;;;12.38;2.55;;;16.80;51.10;;;;;;5055067;28;20093;-76
2021/06/08 03:44:30;;;;;;;2.90;1.52;;;16.70;51.60;;;;;;5053823;28;20399;-75
2021/06/08 03:46:56;;;;;;;3.70;1.67;;;16.60;51.40;;;;;;5065071;28;20028;-74
2021/06/08 03:49:23;;;;;;;5.95;1.58;;;16.60;51.90;;;;;;5056380;28;20039;-75
2021/06/08 03:51:52;;;;;;;2.65;1.67;;;16.60;51.60;;;;;;5057505;28;20017;-76
2021/06/08 03:54:19;;;;;;;3.65;2.30;;;16.50;51.60;;;;;;5071547;28;20078;-75
2021/06/08 03:56:48;;;;;;;6.32;1.67;;;16.40;52.00;;;;;;5062696;28;20157;-76
2021/06/08 03:59:18;;;;;;;4.72;2.03;;;16.50;51.90;;;;;;5065427;28;20024;-75
2021/06/08 04:01:45;;;;;;;9.75;2.83;;;16.50;52.70;;;;;;5067649;28;20704;-76
2021/06/08 04:04:12;;;;;;;8.88;1.75;;;16.40;52.30;;;;;;5061484;28;20463;-76
2021/06/08 04:06:40;;;;;;;4.25;1.30;;;16.40;52.10;;;;;;5071484;28;20059;-77
2021/06/08 04:09:10;;;;;;;9.27;1.60;;;16.50;52.30;;;;;;5049253;28;20371;-77
2021/06/08 04:11:37;;;;;;;9.13;2.00;;;16.40;52.80;;;;;;5071828;28;20021;-75
2021/06/08 04:14:04;;;;;;;5.47;1.85;;;16.40;52.30;;;;;;5068577;28;20059;-75
2021/06/08 04:16:33;;;;;;;5.57;1.15;;;16.30;53.10;;;;;;5073374;28;20016;-76
2021/06/08 04:19:00;;;;;;;2.30;1.33;;;16.20;53.00;;;;;;5061957;28;20021;-75
2021/06/08 04:21:27;;;;;;;4.00;1.50;;;16.30;53.20;;;;;;5072979;28;20522;-76
2021/06/08 04:23:58;;;;;;;10.15;1.50;;;16.20;53.10;;;;;;5070615;28;20108;-75
2021/06/08 04:26:25;;;;;;;7.35;1.45;;;16.10;53.30;;;;;;5067874;28;20032;-76
2021/06/08 04:28:52;;;;;;;5.57;1.40;;;16.20;53.40;;;;;;5062119;28;20024;-76
2021/06/08 04:31:21;;;;;;;11.13;2.35;;;16.20;53.20;;;;;;5074922;28;20020;-76
2021/06/08 04:33:48;;;;;;;4.45;1.60;;;16.20;53.40;;;;;;5070557;28;20029;-75
2021/06/08 04:36:16;;;;;;;3.38;1.33;;;16.10;53.30;;;;;;5070720;28;20021;-75
2021/06/08 04:38:43;;;;;;;8.27;2.25;;;16.20;53.60;;;;;;5076788;28;20027;-75
2021/06/08 04:41:10;;;;;;;1.58;1.20;;;16.20;53.00;;;;;;5085397;28;20035;-76
2021/06/08 04:43:36;;;;;;;6.15;2.05;;;16.10;52.70;;;;;;5076874;28;20021;-76
2021/06/08 04:46:07;;;;;;;1.48;1.20;;;16.00;53.40;;;;;;5059375;28;20484;-77
2021/06/08 04:48:34;;;;;;;3.78;1.52;;;16.10;53.30;;;;;;5076907;28;20033;-76
2021/06/08 04:51:01;;;;;;;2.38;1.23;;;16.00;53.20;;;;;;5077450;28;20043;-77
2021/06/08 04:53:27;;;;;;;4.45;1.42;;;16.10;53.30;;;;;;5077053;28;20483;-76
2021/06/08 04:55:54;;;;;;;3.05;2.25;;;16.10;53.30;;;;;;5076871;28;20040;-75
2021/06/08 04:58:21;;;;;;;10.80;2.65;;;16.20;53.20;;;;;;5076450;28;20104;-76
2021/06/08 05:01:28;;;;;;;3.45;1.17;;;16.20;53.10;;;;;;5058851;28;20033;-76
2021/06/08 05:04:11;;;;;;;2.08;1.20;;;16.00;53.30;;;;;;5059413;28;20119;-75
2021/06/08 05:06:45;;;;;;;2.15;1.40;;;16.10;53.30;;;;;;5076887;28;20059;-76
2021/06/08 05:09:19;;;;;;;5.15;1.63;;;16.10;53.50;;;;;;5070495;28;20032;-76
2021/06/08 05:11:58;;;;;;;6.43;1.48;;;16.00;53.70;;;;;;5072303;28;20024;-77
2021/06/08 05:14:29;;;;;;;3.55;1.20;;;16.00;53.50;;;;;;5056690;28;20021;-76
2021/06/08 05:16:57;;;;;;;2.88;1.40;;;16.10;53.30;;;;;;5038876;28;20083;-76
2021/06/08 05:19:25;;;;;;;3.53;2.25;;;16.00;54.20;;;;;;5060608;28;20365;-76
2021/06/08 05:21:52;;;;;;;8.13;1.48;;;16.00;53.90;;;;;;5045336;28;20033;-75
2021/06/08 05:24:20;;;;;;;1.10;0.93;;;15.70;54.40;;;;;;5058415;28;20545;-76
2021/06/08 05:26:49;;;;;;;4.68;2.17;;;15.70;54.00;;;;;;5076246;28;20054;-76
2021/06/08 05:29:23;;;;;;;2.13;1.25;;;15.60;54.30;;;;;;5073907;28;20102;-76
2021/06/08 05:32:05;;;;;;;10.10;2.20;;;15.50;55.00;;;;;;5041893;28;20060;-76
2021/06/08 05:34:32;;;;;;;2.67;1.38;;;15.70;54.10;;;;;;5076088;28;20024;-77
2021/06/08 05:37:06;;;;;;;3.20;1.20;;;15.70;53.50;;;;;;5058428;28;20157;-76
2021/06/08 05:39:37;;;;;;;4.15;1.50;;;15.50;54.40;;;;;;5075605;28;20039;-77
2021/06/08 05:42:08;;;;;;;14.80;1.77;;;15.50;54.10;;;;;;5076202;28;20059;-77
2021/06/08 05:44:34;;;;;;;1.27;0.85;;;15.40;54.80;;;;;;5075231;28;20070;-77
2021/06/08 05:47:06;;;;;;;2.50;1.25;;;15.50;54.20;;;;;;5074632;28;20039;-76
2021/06/08 05:49:35;;;;;;;2.38;1.83;;;15.40;54.70;;;;;;5066497;28;20025;-76
2021/06/08 05:52:03;;;;;;;3.97;1.63;;;15.50;54.50;;;;;;5073934;28;20033;-76
2021/06/08 05:54:30;;;;;;;4.43;1.23;;;15.40;55.40;;;;;;5040922;28;20435;-76
2021/06/08 05:56:58;;;;;;;3.38;1.15;;;15.40;54.80;;;;;;5048306;28;20490;-77
2021/06/08 05:59:25;;;;;;;3.90;1.15;;;15.50;54.60;;;;;;5074907;28;20016;-77
2021/06/08 06:01:52;;;;;;;10.57;2.15;;;15.50;54.60;;;;;;5042435;28;20074;-76
2021/06/08 06:04:24;;;;;;;3.88;1.35;;;15.50;54.70;;;;;;5061355;28;20511;-77
2021/06/08 06:06:51;;;;;;;1.83;1.23;;;15.50;55.00;;;;;;5068907;28;20054;-76
2021/06/08 06:09:20;;;;;;;1.60;1.27;;;15.40;54.90;;;;;;5068539;28;20471;-76
2021/06/08 06:11:48;;;;;;;1.35;1.20;;;15.40;55.40;;;;;;5077685;28;20449;-77
2021/06/08 06:14:16;;;;;;;6.57;1.60;;;15.40;55.10;;;;;;5074953;28;20365;-77
2021/06/08 06:16:49;;;;;;;3.40;1.00;;;15.50;53.90;;;;;;5064691;28;20017;-76
2021/06/08 06:19:16;;;;;;;1.40;0.90;;;15.50;54.10;;;;;;5051721;28;20020;-77
2021/06/08 06:21:42;;;;;;;3.20;1.33;;;15.40;55.00;;;;;;5064013;28;20052;-77
2021/06/08 06:24:12;;;;;;;9.40;1.40;;;15.40;54.00;;;;;;5079917;28;20434;-77
2021/06/08 06:26:41;;;;;;;1.27;0.90;;;15.50;53.70;;;;;;5074074;28;20017;-77
2021/06/08 06:29:09;;;;;;;10.80;1.42;;;15.50;54.30;;;;;;5087059;28;20020;-77
2021/06/08 06:31:36;;;;;;;4.38;1.60;;;15.40;54.20;;;;;;5061511;28;20028;-77
2021/06/08 06:34:04;;;;;;;2.67;1.10;;;15.40;54.10;;;;;;5060784;28;20405;-76
2021/06/08 06:36:33;;;;;;;5.63;1.65;;;15.40;54.10;;;;;;5071945;28;20020;-76
2021/06/08 06:39:06;;;;;;;4.10;1.92;;;15.40;54.30;;;;;;5077368;28;20073;-76
2021/06/08 06:41:40;;;;;;;5.43;1.40;;;15.40;53.60;;;;;;5064239;28;20036;-76
2021/06/08 06:44:21;;;;;;;1.17;1.08;;;15.50;54.10;;;;;;5051776;28;20040;-76
2021/06/08 06:46:50;;;;;;;6.83;1.40;;;15.40;54.50;;;;;;5071832;28;20521;-76
2021/06/08 06:49:17;;;;;;;1.55;1.08;;;15.00;56.80;;;;;;5073594;28;20265;-77
2021/06/08 06:51:45;;;;;;;4.07;1.60;;;15.20;54.50;;;;;;5048531;28;20047;-76
2021/06/08 06:54:13;;;;;;;1.73;0.93;;;15.20;55.10;;;;;;5072889;28;20017;-76
2021/06/08 06:56:40;;;;;;;1.40;0.90;;;15.10;54.80;;;;;;5076136;28;20040;-76
2021/06/08 06:59:07;;;;;;;1.30;1.20;;;15.00;55.70;;;;;;5056587;28;20364;-76
2021/06/08 07:01:34;;;;;;;4.57;2.30;;;15.00;55.40;;;;;;5071599;28;20032;-76
2021/06/08 07:04:02;;;;;;;4.97;1.25;;;15.10;54.80;;;;;;5069609;28;20020;-76
2021/06/08 07:06:30;;;;;;;4.13;1.15;;;15.10;56.20;;;;;;5076051;28;20028;-77
2021/06/08 07:09:00;;;;;;;1.42;1.33;;;15.20;55.30;;;;;;5076566;28;20032;-77
2021/06/08 07:11:27;;;;;;;4.35;1.63;;;15.10;54.30;;;;;;5086997;28;20028;-78
2021/06/08 07:13:55;;;;;;;11.93;1.55;;;15.20;54.10;;;;;;5077865;28;20112;-77
2021/06/08 07:16:25;;;;;;;2.75;1.40;;;15.10;55.10;;;;;;5075976;28;20101;-78
2021/06/08 07:18:53;;;;;;;2.60;1.50;;;15.20;53.90;;;;;;5077804;28;20095;-77
2021/06/08 07:21:21;;;;;;;1.20;1.10;;;15.10;55.00;;;;;;5071927;28;20499;-77
2021/06/08 07:23:51;;;;;;;5.20;1.25;;;15.20;54.90;;;;;;5067065;28;20028;-77
2021/06/08 07:26:18;;;;;;;1.85;1.42;;;15.10;54.10;;;;;;5078356;28;20031;-77
2021/06/08 07:28:46;;;;;;;5.38;1.45;;;15.30;55.70;;;;;;5068471;28;20460;-77
2021/06/08 07:31:22;;;;;;;17.15;2.88;;;15.30;55.70;;;;;;5073910;28;20434;-77
2021/06/08 07:34:03;;;;;;;2.80;1.38;;;15.40;55.70;;;;;;5072627;28;20153;-77
2021/06/08 07:36:51;;;;;;;8.13;1.70;;;15.50;56.20;;;;;;5057718;28;20025;-78
2021/06/08 07:39:22;;;;;;;2.00;1.23;;;15.30;55.50;;;;;;5071093;28;20411;-77
2021/06/08 07:41:57;;;;;;;5.60;1.33;;;15.30;56.90;;;;;;5061230;28;20047;-77
2021/06/08 07:44:30;;;;;;;6.50;1.60;;;15.10;56.10;;;;;;5057137;28;20021;-78
2021/06/08 07:47:04;;;;;;;5.78;2.33;;;15.10;57.50;;;;;;5056461;28;20025;-77
2021/06/08 07:49:33;;;;;;;2.85;1.63;;;15.10;56.70;;;;;;5047678;28;20029;-78
2021/06/08 07:52:04;;;;;;;4.03;1.40;;;15.10;56.80;;;;;;5053870;28;20082;-78
2021/06/08 07:54:32;;;;;;;5.18;1.77;;;14.90;57.30;;;;;;5063640;28;20471;-78
2021/06/08 07:56:59;;;;;;;8.05;1.38;;;14.90;57.70;;;;;;5074268;28;20356;-77
2021/06/08 07:59:26;;;;;;;5.78;1.40;;;14.90;57.20;;;;;;5077669;28;20029;-78
2021/06/08 08:01:53;;;;;;;2.78;1.48;;;14.90;57.40;;;;;;5078300;28;20035;-78
2021/06/08 08:04:20;;;;;;;4.95;1.13;;;14.90;57.60;;;;;;5086531;28;20025;-78
2021/06/08 08:06:51;;;;;;;6.68;1.17;;;14.90;57.50;;;;;;5087617;28;20021;-78
2021/06/08 08:09:19;;;;;;;4.78;1.15;;;15.00;57.30;;;;;;5083053;28;20028;-78
2021/06/08 08:11:52;;;;;;;2.67;1.33;;;14.90;57.70;;;;;;5077225;28;20024;-78
2021/06/08 08:14:23;;;;;;;4.22;1.08;;;14.90;57.10;;;;;;5080485;28;20150;-77
2021/06/08 08:16:51;;;;;;;4.20;1.60;;;14.80;55.90;;;;;;5059800;28;20025;-78
2021/06/08 08:19:19;;;;;;;4.97;2.45;;;14.80;56.80;;;;;;5062867;28;20043;-78
2021/06/08 08:21:47;;;;;;;4.13;1.02;;;14.80;57.10;;;;;;5075731;28;20040;-78
2021/06/08 08:24:13;;;;;;;2.05;1.00;;;14.80;56.90;;;;;;5076481;28;20013;-77
2021/06/08 08:26:39;;;;;;;6.18;2.60;;;14.80;57.60;;;;;;5079131;28;20043;-77
2021/06/08 08:29:06;;;;;;;3.35;1.02;;;14.80;56.80;;;;;;5078116;28;20048;-77
2021/06/08 08:31:33;;;;;;;1.65;1.55;;;14.80;58.00;;;;;;5082168;28;20025;-77
2021/06/08 08:34:01;;;;;;;2.35;1.30;;;14.70;57.50;;;;;;5061888;28;20032;-77
2021/06/08 08:36:29;;;;;;;7.78;2.15;;;14.70;57.10;;;;;;5073375;28;20028;-77
2021/06/08 08:38:57;;;;;;;4.05;1.40;;;14.70;57.30;;;;;;5076712;28;20028;-77
2021/06/08 08:41:24;;;;;;;0.80;0.80;;;14.70;56.10;;;;;;5079944;28;20452;-77
2021/06/08 08:43:51;;;;;;;5.20;1.40;;;14.70;57.30;;;;;;5075348;28;20020;-77
2021/06/08 08:46:19;;;;;;;6.18;1.58;;;14.60;57.40;;;;;;5083863;28;20038;-77
2021/06/08 08:48:52;;;;;;;5.18;1.77;;;14.60;56.80;;;;;;5080528;28;20028;-76
2021/06/08 08:51:19;;;;;;;2.42;1.45;;;14.70;56.90;;;;;;5079132;28;20031;-76
2021/06/08 08:53:48;;;;;;;2.20;1.38;;;14.70;57.10;;;;;;5081728;28;20021;-77
2021/06/08 08:56:17;;;;;;;4.80;1.30;;;14.70;56.50;;;;;;5094403;28;20105;-76
2021/06/08 08:58:46;;;;;;;2.63;1.27;;;14.60;57.30;;;;;;5076609;28;20025;-76
2021/06/08 09:01:13;;;;;;;2.90;1.20;;;14.60;57.90;;;;;;5075684;28;20506;-77
2021/06/08 09:03:40;;;;;;;2.67;1.00;;;14.60;57.90;;;;;;5078706;28;20021;-77
2021/06/08 09:06:07;;;;;;;1.60;1.38;;;14.60;57.50;;;;;;5080120;28;20032;-77
2021/06/08 09:08:34;;;;;;;1.00;1.00;;;14.60;57.50;;;;;;5079221;28;20023;-77
2021/06/08 09:11:01;;;;;;;1.10;1.10;;;14.40;57.60;;;;;;5080733;28;20071;-77
2021/06/08 09:13:27;;;;;;;8.68;2.67;;;14.40;57.60;;;;;;5076437;28;20021;-76
2021/06/08 09:15:54;;;;;;;3.10;1.83;;;14.40;58.00;;;;;;5076757;28;20119;-76
2021/06/08 09:18:24;;;;;;;3.22;1.10;;;14.30;57.40;;;;;;5076137;28;20032;-76
2021/06/08 09:20:51;;;;;;;4.13;1.17;;;14.30;58.00;;;;;;5076126;28;20044;-76
2021/06/08 09:23:23;;;;;;;4.43;1.15;;;14.30;56.30;;;;;;5075178;28;20044;-77
2021/06/08 09:25:52;;;;;;;13.25;2.05;;;14.30;56.60;;;;;;5068934;28;20032;-77
2021/06/08 09:28:36;;;;;;;5.82;1.77;;;14.20;56.80;;;;;;5073066;28;20062;-76
2021/06/08 09:31:15;;;;;;;1.98;1.10;;;14.20;56.20;;;;;;5075533;28;20029;-76
2021/06/08 09:33:47;;;;;;;4.53;1.00;;;14.10;57.30;;;;;;5087815;28;20027;-77
2021/06/08 09:36:14;;;;;;;;;;;14.10;57.70;;;;;;5075795;28;20039;-77
2021/06/08 09:38:52;;;;;;;9.40;3.67;;;14.00;56.40;;;;;;5075635;28;20359;-76
2021/06/08 09:41:41;;;;;;;3.15;1.92;;;14.10;56.70;;;;;;5074984;28;20452;-76
2021/06/08 09:44:10;;;;;;;4.88;1.38;;;14.00;56.20;;;;;;5075449;28;20459;-76
2021/06/08 09:46:54;;;;;;;8.88;1.50;;;13.90;57.70;;;;;;5057780;28;20345;-76
2021/06/08 09:49:35;;;;;;;4.43;1.48;;;13.80;56.60;;;;;;5075208;28;20367;-76
2021/06/08 09:52:03;;;;;;;4.30;1.52;;;13.80;57.10;;;;;;5084025;28;20025;-76
2021/06/08 09:54:37;;;;;;;3.72;1.40;;;13.80;57.00;;;;;;5072131;28;20055;-77
2021/06/08 09:57:17;;;;;;;5.00;1.70;;;13.80;58.30;;;;;;5074809;28;20017;-76
2021/06/08 09:59:54;;;;;;;2.25;1.52;;;13.90;58.10;;;;;;5086103;28;20036;-76
2021/06/08 10:02:25;;;;;;;3.50;2.42;;;14.00;57.60;;;;;;5063622;28;20063;-76
2021/06/08 10:04:52;;;;;;;2.67;0.93;;;13.90;58.70;;;;;;5074041;28;20097;-76
2021/06/08 10:07:29;;;;;;;4.15;1.40;;;14.00;57.90;;;;;;5074835;28;20024;-76
2021/06/08 10:10:04;;;;;;;2.08;1.17;;;14.00;57.30;;;;;;5074162;28;20033;-76
2021/06/08 10:12:31;;;;;;;5.43;1.20;;;14.20;58.00;;;;;;5068118;28;20467;-76
2021/06/08 10:15:11;;;;;;;1.20;1.10;;;14.20;59.30;;;;;;5084969;28;20032;-76
2021/06/08 10:17:38;;;;;;;1.20;1.10;;;14.20;58.60;;;;;;5074994;28;20021;-77
2021/06/08 10:20:29;;;;;;;3.78;2.15;;;14.10;57.80;;;;;;5074235;28;20029;-77
2021/06/08 10:22:57;;;;;;;2.95;1.52;;;14.10;59.40;;;;;;5071822;28;20031;-76
2021/06/08 10:25:24;;;;;;;3.63;1.33;;;14.20;58.90;;;;;;5069007;28;20455;-76
2021/06/08 10:27:50;;;;;;;3.38;1.73;;;14.20;58.30;;;;;;5074440;28;20040;-77
2021/06/08 10:30:17;;;;;;;2.08;1.20;;;14.20;58.80;;;;;;5075068;28;20038;-76
2021/06/08 10:32:44;;;;;;;4.88;1.35;;;14.20;57.50;;;;;;5073241;28;20021;-76
2021/06/08 10:35:12;;;;;;;0.90;0.90;;;14.20;57.20;;;;;;5075330;28;20021;-77
2021/06/08 10:37:38;;;;;;;2.97;1.50;;;14.30;57.40;;;;;;5073644;28;20406;-77
2021/06/08 10:40:06;;;;;;;5.82;1.45;;;14.50;59.00;;;;;;5083735;28;20029;-76
2021/06/08 10:42:33;;;;;;;1.92;1.70;;;14.40;57.90;;;;;;5074656;28;20100;-77
2021/06/08 10:45:10;;;;;;;7.70;1.35;;;14.30;59.00;;;;;;5082226;28;20081;-77
2021/06/08 10:47:43;;;;;;;1.90;1.15;;;14.30;59.00;;;;;;5063791;28;20471;-77
2021/06/08 10:50:31;;;;;;;7.95;1.33;;;14.30;58.60;;;;;;5079163;28;20035;-77
2021/06/08 10:52:58;;;;;;;3.33;1.40;;;14.30;58.50;;;;;;5075017;28;20467;-76
2021/06/08 10:55:37;;;;;;;1.63;1.52;;;14.40;58.80;;;;;;5078861;28;20020;-76
2021/06/08 10:58:05;;;;;;;4.63;1.52;;;14.50;58.80;;;;;;5069993;28;20020;-77
2021/06/08 11:00:43;;;;;;;1.30;1.20;;;14.40;58.70;;;;;;5081001;28;20031;-77
2021/06/08 11:03:12;;;;;;;3.70;1.52;;;14.40;59.70;;;;;;5053151;28;20419;-76
2021/06/08 11:05:49;;;;;;;3.85;1.00;;;14.40;59.80;;;;;;5060661;28;20081;-77
2021/06/08 11:08:16;;;;;;;4.20;1.98;;;14.60;59.50;;;;;;5056100;28;20077;-77
2021/06/08 11:10:52;;;;;;;0.90;0.90;;;14.80;59.50;;;;;;5076584;28;20024;-77
2021/06/08 11:13:18;;;;;;;6.30;2.50;;;14.70;59.60;;;;;;5075299;28;20451;-77
2021/06/08 11:15:46;;;;;;;1.55;0.90;;;14.90;58.80;;;;;;5074267;28;20038;-77
2021/06/08 11:18:22;;;;;;;6.65;1.20;;;14.70;58.40;;;;;;5078500;28;20056;-77
2021/06/08 11:20:57;;;;;;;2.20;1.55;;;14.70;58.60;;;;;;5075408;28;20032;-77
2021/06/08 11:23:42;;;;;;;1.25;1.00;;;14.60;58.80;;;;;;5072972;28;20063;-77
2021/06/08 11:26:09;;;;;;;2.08;1.33;;;14.80;60.20;;;;;;5064376;28;20028;-77
2021/06/08 11:28:42;;;;;;;2.67;1.77;;;14.80;59.10;;;;;;5086334;28;20032;-77
2021/06/08 11:31:10;;;;;;;1.20;1.10;;;14.80;58.80;;;;;;5059244;28;20045;-76
2021/06/08 11:33:39;;;;;;;7.10;1.60;;;14.80;59.40;;;;;;5074153;28;20067;-77
2021/06/08 11:36:26;;;;;;;1.80;1.55;;;14.70;59.10;;;;;;5073816;28;20482;-77
2021/06/08 11:39:19;;;;;;;1.73;1.20;;;14.70;59.20;;;;;;5065546;28;20037;-77
2021/06/08 11:42:00;;;;;;;3.97;1.90;;;14.90;59.50;;;;;;5080326;28;20021;-77
2021/06/08 11:44:26;;;;;;;1.40;1.00;;;14.80;58.90;;;;;;5062052;28;20032;-76
2021/06/08 11:46:54;;;;;;;3.38;1.20;;;14.80;58.90;;;;;;5079946;28;20032;-76
2021/06/08 11:49:23;;;;;;;0.90;0.90;;;14.70;60.20;;;;;;5077060;28;20142;-76
2021/06/08 11:52:09;;;;;;;2.33;1.15;;;14.90;60.00;;;;;;5085120;28;20028;-76
2021/06/08 11:54:36;;;;;;;4.72;1.20;;;14.90;59.30;;;;;;5061816;28;20443;-76
2021/06/08 11:57:05;;;;;;;2.53;1.27;;;14.90;60.00;;;;;;5079583;28;20024;-76
2021/06/08 11:59:55;;;;;;;4.25;0.93;;;14.80;59.40;;;;;;5047739;28;20025;-76
2021/06/08 12:02:30;;;;;;;3.60;1.42;;;14.70;60.20;;;;;;5081577;28;20024;-76
2021/06/08 12:05:19;;;;;;;2.90;1.50;;;14.70;60.00;;;;;;5076874;28;20017;-76
2021/06/08 12:08:09;;;;;;;1.25;1.10;;;14.80;60.40;;;;;;5073144;28;20406;-76
2021/06/08 12:10:43;;;;;;;4.20;1.73;;;14.90;59.60;;;;;;5089515;28;20357;-77
2021/06/08 12:13:11;;;;;;;1.27;0.90;;;14.80;60.10;;;;;;5069848;28;20021;-76
2021/06/08 12:15:41;;;;;;;1.10;1.08;;;14.70;59.80;;;;;;5092152;28;20039;-76
2021/06/08 12:18:12;;;;;;;5.40;1.10;;;14.80;59.50;;;;;;5073256;28;20024;-76
2021/06/08 12:20:42;;;;;;;1.37;1.20;;;14.80;60.30;;;;;;5073410;28;20047;-77
2021/06/08 12:23:10;;;;;;;1.85;1.75;;;14.80;59.90;;;;;;5074202;28;20276;-77
2021/06/08 12:25:37;;;;;;;8.45;1.77;;;14.90;59.60;;;;;;5073381;28;20112;-76
2021/06/08 12:28:13;;;;;;;2.53;1.88;;;14.80;59.30;;;;;;5077188;28;20058;-76
2021/06/08 12:30:39;;;;;;;4.97;2.03;;;14.90;59.30;;;;;;5074598;28;20025;-76
2021/06/08 12:33:06;;;;;;;3.92;1.30;;;14.80;59.60;;;;;;5084442;28;20029;-76
2021/06/08 12:35:36;;;;;;;1.77;1.40;;;14.70;60.00;;;;;;5073941;28;20055;-76
2021/06/08 12:38:21;;;;;;;5.82;1.73;;;14.70;59.40;;;;;;5054701;28;20032;-76
2021/06/08 12:41:09;;;;;;;3.80;1.63;;;14.80;59.80;;;;;;5060109;28;20029;-76
2021/06/08 12:43:47;;;;;;;9.23;1.50;;;14.90;59.10;;;;;;5075188;28;20039;-75
2021/06/08 12:46:30;;;;;;;3.53;1.45;;;14.90;59.20;;;;;;5076813;28;20016;-76
2021/06/08 12:49:13;;;;;;;2.17;1.20;;;14.90;59.70;;;;;;5064439;28;20086;-76
2021/06/08 12:51:57;;;;;;;2.65;1.50;;;14.80;59.10;;;;;;5076533;28;20341;-76
2021/06/08 12:54:56;;;;;;;2.50;1.65;;;14.80;59.50;;;;;;5058670;28;20024;-77
2021/06/08 12:57:24;;;;;;;2.72;2.00;;;14.80;60.30;;;;;;5035929;28;20036;-76
2021/06/08 12:59:55;;;;;;;2.53;1.00;;;14.80;59.60;;;;;;5076304;28;20020;-77
2021/06/08 13:02:23;;;;;;;2.05;1.45;;;14.80;60.40;;;;;;5059038;28;20097;-77